Terminal Aerodrome Forecast
Issued by NWS

Home | Current Version | Previous Version | Text Only | Print | Product List | Glossary On
Versions: 1 2 3 4 5 6 7 8 9 10 11 12 13 14 15 16 17 18 19 20 21 22 23 24 25 26 27 28 29 30 31 32 33
000
FTUS45 KREV 212339
TAFTVL
TAF
KTVL 212339Z 2200/2224 20008G15KT 1 1/2SM -SHSN BKN010 OVC030
      TEMPO 2200/2204 19011G20KT 1/4SM +SN VV008
     FM220400 20010KT 3SM -SHSN BKN020 OVC030
     FM220900 19009KT P6SM VCSH BKN030=

USA.gov is the U.S. government's official web portal to all federal, state and local government web resources and services.